GOOYDGAA

Guest
Details From GOOY - Dakar Leopold Sedar Senghor Intl
To DGAA - Accra_Kotoka_Intl
Flight Number -
Tags generated
Created
Modified
Stats Distance 1,209 nm / 2,238 km
Max Altitude 35,000 ft / 10,668 m
Waypoints 18
Social Downloads 1
Likes 0
Share VATSIM

Download

Looking for another format? Having issues loading an existing format? Contact us
Advertisement - Login to hide

Notes

Basic altitude profile: - Ascent Rate: 2500ft/min - Ascent Speed: 250kts - Cruise Altitude: 35000ft - Cruise Speed: 420kts - Descent Rate: 1500ft/min - Descent Speed: 250kts Options: - Use NATs: yes - Use PACOTS: yes - Use low airways: yes - Use high airways: yes

Route

GOOY YF UR979 AD UB600 TEMBI B600 BONTI DGAA

ID Type Via Altitude Latitude Longitude Leg Dist Tot Dist Heading (true) Name
O GOOY APT - 0 ft / 0 m 14.73971˚ -17.49023˚ - 0 nm - Dakar Leopold Sedar Senghor Intl
YF VOR - 300 ft / 91 m 14.74483˚ -17.47478˚ 0 nm 0 nm 71° / 71° DAKAR VOR-DME
ERIDI FIX UR979 (AWY-HI) 35,000 ft / 10,668 m 13.19333˚ -15.13028˚ 165 nm 166 nm 124° / 125° -
KOMAB FIX UR979 (AWY-HI) 35,000 ft / 10,668 m 12.74667˚ -14.46722˚ 47 nm 213 nm 125° / 125° -
BADIA FIX UR979 (AWY-HI) 35,000 ft / 10,668 m 12.26667˚ -13.76667˚ 50 nm 263 nm 125° / 125° -
NASLO FIX UR979 (AWY-HI) 35,000 ft / 10,668 m 11.78333˚ -13.15000˚ 46 nm 310 nm 129° / 129° -
LUGMI FIX UR979 (AWY-HI) 35,000 ft / 10,668 m 11.25000˚ -12.36667˚ 56 nm 366 nm 125° / 125° -
KOLIP FIX UR979 (AWY-HI) 35,000 ft / 10,668 m 10.66667˚ -11.55000˚ 59 nm 425 nm 126° / 126° -
BUNAP FIX UR979 (AWY-HI) 35,000 ft / 10,668 m 10.25000˚ -11.00000˚ 41 nm 466 nm 128° / 128° -
ARBAL FIX UR979 (AWY-HI) 35,000 ft / 10,668 m 10.10000˚ -10.71667˚ 19 nm 485 nm 118° / 118° -
NANAN FIX UR979 (AWY-HI) 35,000 ft / 10,668 m 9.05000˚ -9.28333˚ 105 nm 591 nm 126° / 127° -
ERMIT FIX UR979 (AWY-HI) 35,000 ft / 10,668 m 8.36667˚ -8.28333˚ 72 nm 663 nm 125° / 125° -
POKSO FIX UR979 (AWY-HI) 35,000 ft / 10,668 m 6.75639˚ -5.94750˚ 169 nm 833 nm 125° / 125° -
AD VOR UR979 (AWY-HI) 35,000 ft / 10,668 m 5.27719˚ -3.91931˚ 150 nm 983 nm 126° / 126° ABIDJAN VOR-DME
AFO NDB UB600 (AWY-HI) 35,000 ft / 10,668 m 5.41114˚ -2.91647˚ 60 nm 1043 nm 82° / 82° AFIENOU NDB
TEMBI FIX UB600 (AWY-HI) 23,500 ft / 7,163 m 5.48389˚ -1.70111˚ 72 nm 1116 nm 87° / 87° -
BONTI FIX B600 (AWY-LO) 6,800 ft / 2,073 m 5.58444˚ -0.70083˚ 60 nm 1176 nm 84° / 84° -
O DGAA APT - 0 ft / 0 m 5.60258˚ -0.16760˚ 31 nm 1208 nm 88° / 88° Accra_Kotoka_Intl

Altitude Profile

Advertisement - Login to hide

Weather


0- 5 10 15 20 25 30 35+ Temperature / ° C

Clouds and Precipitation
Forecast for 2017-12-18 06:00 UTC. Updated 28 minutes ago

Ground ~20,000 ft ~40,000 ft Winds

GOOY

Details ICAO GOOY (DKR)
Name Dakar Leopold Sedar Senghor Intl
Region Senegal
Timezone Africa/Dakar (UTC+0.0)
Stats Elevation 85 ft / 26 m (AMSL)
Location 14.739711° -17.490226°
Runways 2
Magnetic Variation 7.346° W

METAR

GOOY 180300Z 36010KT 8000 NSC 20/17 Q1014

Decode

TAF

TAF GOOY 172330Z 1800/1906 02013KT 8000 NSC= TAF GBYD 172330Z 1800/1906 06008KT CAVOK

Decode

Departure Runways

ID Width Length Bearing (true) Bearing (mag) Surface Threshold Offset Overrun Length
03 98 ft / 30 m 4,921 ft / 1,500 m 22.31° 29.66° Asphalt 0 ft / 0 m 98 ft / 30 m
18 148 ft / 45 m 11,511 ft / 3,509 m 172.57° 179.92° Asphalt 525 ft / 160 m 197 ft / 60 m
21 98 ft / 30 m 4,921 ft / 1,500 m 202.31° 209.66° Asphalt 0 ft / 0 m 1,590 ft / 485 m
36 148 ft / 45 m 11,511 ft / 3,509 m 352.57° 359.92° Asphalt 0 ft / 0 m 197 ft / 60 m

DGAA

Details ICAO DGAA (ACC)
Name Accra_Kotoka_Intl
Region Ghana
Timezone Africa/Accra (UTC+0.0)
Stats Elevation 204 ft / 62 m (AMSL)
Location 5.602578° -0.167602°
Runways 1
Magnetic Variation 3.419° W

METAR

DGAA 180300Z 22008KT 9999 FEW010 27/26 Q1010 NOSIG

Decode

TAF

TAF DGAA 172300Z 1800/1906 27005KT 7000 NSC TEMPO 1806/1810 3000 BR SCT024 BECMG 1811/1813 19011KT 4000 HZ TEMPO 1817/1821 8000 TS FEW030CB

Decode

Destination Runways

ID Width Length Bearing (true) Bearing (mag) Surface Threshold Offset Overrun Length
03 200 ft / 61 m 11,176 ft / 3,406 m 22.00° 25.42° Asphalt 0 ft / 0 m 351 ft / 107 m
21 200 ft / 61 m 11,176 ft / 3,406 m 202.00° 205.42° Asphalt 1,355 ft / 413 m 0 ft / 0 m

Approach Navaids

Runway Type Ident Frequency Range Bearing (true) Bearing (mag) Slope Elevation
21 Localiser IACA 109.90 MHz 18 nm / 33 km 202.10° 205.52° - 204 ft / 62 m (AMSL)
21 Glidescope IACA 109.90 MHz 10 nm / 19 km 203.00° 206.42° 3.00° 204 ft / 62 m (AMSL)

Popular Alternatives